sensor_id;sensor_type;location;lat;lon;timestamp;pressure;altitude;pressure_sealevel;temperature;humidity
63194;BME280;49289;51.670;5.624;2023-06-04T00:01:02;102279.41;;;22.09;35.50
63194;BME280;49289;51.670;5.624;2023-06-04T00:02:49;102276.09;;;22.37;35.66
63194;BME280;49289;51.670;5.624;2023-06-04T00:04:37;102276.97;;;22.14;35.72
63194;BME280;49289;51.670;5.624;2023-06-04T00:06:25;102252.98;;;21.97;35.73
63194;BME280;49289;51.670;5.624;2023-06-04T00:08:14;102274.45;;;21.73;36.08
63194;BME280;49289;51.670;5.624;2023-06-04T00:10:03;102273.40;;;22.05;36.14
63194;BME280;49289;51.670;5.624;2023-06-04T00:11:50;102277.91;;;22.30;36.02
63194;BME280;49289;51.670;5.624;2023-06-04T00:13:38;102272.14;;;22.36;35.85
63194;BME280;49289;51.670;5.624;2023-06-04T00:15:26;102270.52;;;22.27;35.94
63194;BME280;49289;51.670;5.624;2023-06-04T00:17:13;102250.06;;;21.98;36.04
63194;BME280;49289;51.670;5.624;2023-06-04T00:19:00;102251.58;;;21.98;36.11
63194;BME280;49289;51.670;5.624;2023-06-04T00:20:47;102271.17;;;22.04;36.37
63194;BME280;49289;51.670;5.624;2023-06-04T00:22:34;102272.73;;;22.24;36.05
63194;BME280;49289;51.670;5.624;2023-06-04T00:24:21;102249.56;;;22.04;36.46
63194;BME280;49289;51.670;5.624;2023-06-04T00:26:08;102271.98;;;22.21;36.21
63194;BME280;49289;51.670;5.624;2023-06-04T00:27:55;102269.52;;;22.14;36.25
63194;BME280;49289;51.670;5.624;2023-06-04T00:29:42;102269.14;;;22.05;36.43
63194;BME280;49289;51.670;5.624;2023-06-04T00:31:29;102271.83;;;22.00;36.36
63194;BME280;49289;51.670;5.624;2023-06-04T00:33:16;102273.20;;;21.30;37.55
63194;BME280;49289;51.670;5.624;2023-06-04T00:35:03;102267.52;;;21.73;37.39
63194;BME280;49289;51.670;5.624;2023-06-04T00:36:50;102265.36;;;21.56;37.33
63194;BME280;49289;51.670;5.624;2023-06-04T00:38:37;102265.27;;;21.74;37.06
63194;BME280;49289;51.670;5.624;2023-06-04T00:40:24;102242.48;;;21.62;37.05
63194;BME280;49289;51.670;5.624;2023-06-04T00:42:12;102267.23;;;21.76;37.19
63194;BME280;49289;51.670;5.624;2023-06-04T00:44:01;102261.95;;;21.80;37.21
63194;BME280;49289;51.670;5.624;2023-06-04T00:45:48;102245.30;;;21.68;37.08
63194;BME280;49289;51.670;5.624;2023-06-04T00:47:36;102242.66;;;21.66;37.10
63194;BME280;49289;51.670;5.624;2023-06-04T00:49:23;102241.95;;;21.63;37.32
63194;BME280;49289;51.670;5.624;2023-06-04T00:51:12;102268.69;;;21.46;37.69
63194;BME280;49289;51.670;5.624;2023-06-04T00:53:00;102264.02;;;21.51;37.58
63194;BME280;49289;51.670;5.624;2023-06-04T00:54:48;102247.20;;;21.55;37.40
63194;BME280;49289;51.670;5.624;2023-06-04T00:56:36;102266.19;;;21.56;37.75
63194;BME280;49289;51.670;5.624;2023-06-04T00:58:24;102249.30;;;21.50;37.79
63194;BME280;49289;51.670;5.624;2023-06-04T01:00:12;102265.68;;;21.63;37.52
63194;BME280;49289;51.670;5.624;2023-06-04T01:02:00;102271.02;;;21.63;37.44
63194;BME280;49289;51.670;5.624;2023-06-04T01:03:49;102248.03;;;21.42;37.49
63194;BME280;49289;51.670;5.624;2023-06-04T01:05:36;102270.34;;;21.54;37.84
63194;BME280;49289;51.670;5.624;2023-06-04T01:07:23;102244.95;;;21.19;37.94
63194;BME280;49289;51.670;5.624;2023-06-04T01:09:10;102270.77;;;21.60;37.99
63194;BME280;49289;51.670;5.624;2023-06-04T01:11:04;102275.68;;;21.71;37.56
63194;BME280;49289;51.670;5.624;2023-06-04T01:12:52;102271.69;;;21.55;37.81
63194;BME280;49289;51.670;5.624;2023-06-04T01:14:40;102271.59;;;21.59;37.74
63194;BME280;49289;51.670;5.624;2023-06-04T01:16:29;102270.53;;;21.51;37.56
63194;BME280;49289;51.670;5.624;2023-06-04T01:18:18;102272.42;;;21.59;37.66
63194;BME280;49289;51.670;5.624;2023-06-04T01:22:10;102270.97;;;21.52;37.89
63194;BME280;49289;51.670;5.624;2023-06-04T01:23:56;102269.73;;;21.65;37.64
63194;BME280;49289;51.670;5.624;2023-06-04T01:25:44;102271.86;;;21.68;37.79
63194;BME280;49289;51.670;5.624;2023-06-04T01:27:31;102270.37;;;21.64;37.98
63194;BME280;49289;51.670;5.624;2023-06-04T01:29:19;102272.54;;;21.64;37.90
63194;BME280;49289;51.670;5.624;2023-06-04T01:31:07;102272.26;;;21.67;37.97
63194;BME280;49289;51.670;5.624;2023-06-04T01:32:55;102273.94;;;21.50;37.67
63194;BME280;49289;51.670;5.624;2023-06-04T01:34:49;102264.16;;;21.45;37.91
63194;BME280;49289;51.670;5.624;2023-06-04T01:36:36;102269.05;;;21.53;37.90
63194;BME280;49289;51.670;5.624;2023-06-04T01:38:24;102263.81;;;21.49;37.85
63194;BME280;49289;51.670;5.624;2023-06-04T01:40:13;102269.83;;;21.59;37.85
63194;BME280;49289;51.670;5.624;2023-06-04T01:42:00;102268.06;;;21.41;37.88
63194;BME280;49289;51.670;5.624;2023-06-04T01:43:47;102245.33;;;21.35;38.06
63194;BME280;49289;51.670;5.624;2023-06-04T01:45:34;102262.38;;;21.41;38.27
63194;BME280;49289;51.670;5.624;2023-06-04T01:47:21;102250.70;;;21.33;38.29
63194;BME280;49289;51.670;5.624;2023-06-04T01:49:09;102272.98;;;21.36;38.31
63194;BME280;49289;51.670;5.624;2023-06-04T01:50:57;102249.91;;;20.92;38.07
63194;BME280;49289;51.670;5.624;2023-06-04T01:52:45;102268.84;;;21.20;38.50
63194;BME280;49289;51.670;5.624;2023-06-04T01:54:33;102250.92;;;21.17;38.35
63194;BME280;49289;51.670;5.624;2023-06-04T01:56:20;102267.58;;;21.33;38.43
63194;BME280;49289;51.670;5.624;2023-06-04T01:58:08;102262.87;;;21.31;38.43
63194;BME280;49289;51.670;5.624;2023-06-04T01:59:56;102244.96;;;21.15;38.56
63194;BME280;49289;51.670;5.624;2023-06-04T02:01:44;102261.11;;;21.21;38.34
63194;BME280;49289;51.670;5.624;2023-06-04T02:03:31;102262.03;;;21.17;38.52
63194;BME280;49289;51.670;5.624;2023-06-04T02:05:18;102238.95;;;21.06;38.61
63194;BME280;49289;51.670;5.624;2023-06-04T02:07:06;102266.25;;;21.15;38.74
63194;BME280;49289;51.670;5.624;2023-06-04T02:08:54;102266.78;;;21.12;38.82
63194;BME280;49289;51.670;5.624;2023-06-04T02:10:42;102270.11;;;21.00;38.60
63194;BME280;49289;51.670;5.624;2023-06-04T02:12:29;102271.48;;;21.05;38.63
63194;BME280;49289;51.670;5.624;2023-06-04T02:14:16;102257.92;;;21.00;38.75
63194;BME280;49289;51.670;5.624;2023-06-04T02:16:03;102247.07;;;20.84;38.81
63194;BME280;49289;51.670;5.624;2023-06-04T02:17:50;102247.39;;;20.80;38.92
63194;BME280;49289;51.670;5.624;2023-06-04T02:19:37;102245.72;;;20.80;38.76
63194;BME280;49289;51.670;5.624;2023-06-04T02:21:24;102264.92;;;20.92;38.78
63194;BME280;49289;51.670;5.624;2023-06-04T02:23:11;102264.24;;;20.87;38.94
63194;BME280;49289;51.670;5.624;2023-06-04T02:24:59;102259.58;;;20.83;38.90
63194;BME280;49289;51.670;5.624;2023-06-04T02:26:47;102245.70;;;20.57;38.80
63194;BME280;49289;51.670;5.624;2023-06-04T02:28:35;102258.02;;;20.66;39.47
63194;BME280;49289;51.670;5.624;2023-06-04T02:30:23;102263.91;;;20.76;39.37
63194;BME280;49289;51.670;5.624;2023-06-04T02:32:57;102267.60;;;20.88;39.38
63194;BME280;49289;51.670;5.624;2023-06-04T02:34:44;102243.00;;;20.74;39.16
63194;BME280;49289;51.670;5.624;2023-06-04T02:36:31;102260.02;;;20.82;39.16
63194;BME280;49289;51.670;5.624;2023-06-04T02:38:18;102238.19;;;20.61;38.91
63194;BME280;49289;51.670;5.624;2023-06-04T02:40:05;102260.09;;;20.65;38.90
63194;BME280;49289;51.670;5.624;2023-06-04T02:41:54;102259.54;;;20.67;39.12
63194;BME280;49289;51.670;5.624;2023-06-04T02:43:42;102241.35;;;20.49;38.97
63194;BME280;49289;51.670;5.624;2023-06-04T02:45:30;102260.16;;;20.64;39.30
63194;BME280;49289;51.670;5.624;2023-06-04T02:47:18;102247.83;;;20.39;39.26
63194;BME280;49289;51.670;5.624;2023-06-04T02:49:05;102266.89;;;20.50;39.13
63194;BME280;49289;51.670;5.624;2023-06-04T02:50:53;102262.56;;;20.62;39.42
63194;BME280;49289;51.670;5.624;2023-06-04T02:52:41;102264.61;;;20.56;39.26
63194;BME280;49289;51.670;5.624;2023-06-04T02:54:28;102267.70;;;20.53;39.35
63194;BME280;49289;51.670;5.624;2023-06-04T02:56:15;102270.73;;;20.38;39.40
63194;BME280;49289;51.670;5.624;2023-06-04T02:58:03;102274.16;;;20.41;39.64
63194;BME280;49289;51.670;5.624;2023-06-04T02:59:51;102272.38;;;20.36;39.45
63194;BME280;49289;51.670;5.624;2023-06-04T03:01:39;102273.46;;;20.30;39.48
63194;BME280;49289;51.670;5.624;2023-06-04T03:03:27;102269.41;;;20.11;39.56
63194;BME280;49289;51.670;5.624;2023-06-04T03:05:15;102268.46;;;20.20;39.70
63194;BME280;49289;51.670;5.624;2023-06-04T03:07:03;102253.61;;;20.13;39.75
63194;BME280;49289;51.670;5.624;2023-06-04T03:08:50;102271.48;;;20.17;39.69
63194;BME280;49289;51.670;5.624;2023-06-04T03:10:38;102268.91;;;19.88;39.63
63194;BME280;49289;51.670;5.624;2023-06-04T03:12:26;102270.33;;;20.04;39.57
63194;BME280;49289;51.670;5.624;2023-06-04T03:14:14;102273.34;;;19.96;39.78
63194;BME280;49289;51.670;5.624;2023-06-04T03:16:01;102268.14;;;19.75;39.86
63194;BME280;49289;51.670;5.624;2023-06-04T03:17:48;102265.75;;;19.80;40.00
63194;BME280;49289;51.670;5.624;2023-06-04T03:19:35;102247.83;;;19.54;40.07
63194;BME280;49289;51.670;5.624;2023-06-04T03:21:22;102266.61;;;19.89;40.23
63194;BME280;49289;51.670;5.624;2023-06-04T03:23:09;102271.61;;;19.96;39.87
63194;BME280;49289;51.670;5.624;2023-06-04T03:24:56;102268.30;;;19.97;39.69
63194;BME280;49289;51.670;5.624;2023-06-04T03:26:43;102274.70;;;20.02;39.94
63194;BME280;49289;51.670;5.624;2023-06-04T03:28:31;102273.47;;;20.07;39.81
63194;BME280;49289;51.670;5.624;2023-06-04T03:30:18;102274.18;;;20.05;39.70
63194;BME280;49289;51.670;5.624;2023-06-04T03:32:05;102252.95;;;20.02;39.85
63194;BME280;49289;51.670;5.624;2023-06-04T03:33:52;102274.42;;;20.12;39.55
63194;BME280;49289;51.670;5.624;2023-06-04T03:35:39;102272.12;;;20.09;39.62
63194;BME280;49289;51.670;5.624;2023-06-04T03:37:26;102276.71;;;20.17;39.42
63194;BME280;49289;51.670;5.624;2023-06-04T03:39:13;102272.73;;;19.98;39.59
63194;BME280;49289;51.670;5.624;2023-06-04T03:41:00;102253.41;;;19.95;39.75
63194;BME280;49289;51.670;5.624;2023-06-04T03:42:47;102251.79;;;19.90;40.12
63194;BME280;49289;51.670;5.624;2023-06-04T03:44:34;102255.52;;;19.99;40.05
63194;BME280;49289;51.670;5.624;2023-06-04T03:46:22;102272.74;;;20.07;40.03
63194;BME280;49289;51.670;5.624;2023-06-04T03:48:10;102273.45;;;20.13;39.84
63194;BME280;49289;51.670;5.624;2023-06-04T03:49:58;102276.70;;;20.13;39.86
63194;BME280;49289;51.670;5.624;2023-06-04T03:51:45;102276.70;;;19.97;39.90
63194;BME280;49289;51.670;5.624;2023-06-04T03:53:32;102278.54;;;19.97;39.88
63194;BME280;49289;51.670;5.624;2023-06-04T03:55:19;102268.19;;;19.93;40.18
63194;BME280;49289;51.670;5.624;2023-06-04T03:57:08;102275.01;;;19.85;40.44
63194;BME280;49289;51.670;5.624;2023-06-04T03:58:56;102249.39;;;19.84;40.34
63194;BME280;49289;51.670;5.624;2023-06-04T04:00:44;102270.81;;;19.98;40.37
63194;BME280;49289;51.670;5.624;2023-06-04T04:02:32;102272.72;;;19.94;40.43
63194;BME280;49289;51.670;5.624;2023-06-04T04:04:19;102250.67;;;19.80;40.23
63194;BME280;49289;51.670;5.624;2023-06-04T04:06:06;102271.36;;;19.96;40.44
63194;BME280;49289;51.670;5.624;2023-06-04T04:07:53;102268.08;;;19.95;40.48
63194;BME280;49289;51.670;5.624;2023-06-04T04:09:41;102272.27;;;19.93;40.48
63194;BME280;49289;51.670;5.624;2023-06-04T04:11:29;102268.15;;;19.88;40.31
63194;BME280;49289;51.670;5.624;2023-06-04T04:13:17;102277.03;;;19.96;40.36
63194;BME280;49289;51.670;5.624;2023-06-04T04:15:04;102277.55;;;19.91;40.32
63194;BME280;49289;51.670;5.624;2023-06-04T04:16:52;102282.84;;;19.95;40.50
63194;BME280;49289;51.670;5.624;2023-06-04T04:18:40;102280.92;;;19.85;40.21
63194;BME280;49289;51.670;5.624;2023-06-04T04:20:28;102277.49;;;19.88;40.29
63194;BME280;49289;51.670;5.624;2023-06-04T04:22:16;102278.05;;;19.91;40.54
63194;BME280;49289;51.670;5.624;2023-06-04T04:24:03;102281.33;;;19.85;40.48
63194;BME280;49289;51.670;5.624;2023-06-04T04:25:51;102282.39;;;19.84;40.46
63194;BME280;49289;51.670;5.624;2023-06-04T04:27:39;102279.84;;;19.77;40.45
63194;BME280;49289;51.670;5.624;2023-06-04T04:29:26;102276.11;;;19.74;40.46
63194;BME280;49289;51.670;5.624;2023-06-04T04:31:14;102275.40;;;19.72;40.63
63194;BME280;49289;51.670;5.624;2023-06-04T04:33:02;102273.22;;;19.57;41.00
63194;BME280;49289;51.670;5.624;2023-06-04T04:34:56;102274.58;;;19.92;40.82
63194;BME280;49289;51.670;5.624;2023-06-04T04:36:44;102281.55;;;19.97;40.53
63194;BME280;49289;51.670;5.624;2023-06-04T04:38:32;102280.25;;;19.99;40.70
63194;BME280;49289;51.670;5.624;2023-06-04T04:40:21;102278.33;;;19.99;40.63
63194;BME280;49289;51.670;5.624;2023-06-04T04:42:09;102277.19;;;19.96;40.47
63194;BME280;49289;51.670;5.624;2023-06-04T04:44:02;102280.89;;;19.91;40.46
63194;BME280;49289;51.670;5.624;2023-06-04T04:45:43;102283.12;;;20.02;40.70
63194;BME280;49289;51.670;5.624;2023-06-04T04:47:30;102279.09;;;20.08;40.61
63194;BME280;49289;51.670;5.624;2023-06-04T04:49:17;102283.47;;;19.72;40.75
63194;BME280;49289;51.670;5.624;2023-06-04T04:51:04;102284.78;;;20.05;40.89
63194;BME280;49289;51.670;5.624;2023-06-04T04:52:51;102284.69;;;20.09;40.79
63194;BME280;49289;51.670;5.624;2023-06-04T04:54:38;102283.78;;;20.09;40.65
63194;BME280;49289;51.670;5.624;2023-06-04T04:56:26;102261.58;;;20.18;40.41
63194;BME280;49289;51.670;5.624;2023-06-04T04:58:13;102276.67;;;20.18;40.33
63194;BME280;49289;51.670;5.624;2023-06-04T05:00:00;102284.13;;;20.26;40.52
63194;BME280;49289;51.670;5.624;2023-06-04T05:01:47;102281.60;;;20.41;40.53
63194;BME280;49289;51.670;5.624;2023-06-04T05:03:35;102282.62;;;20.09;40.48
63194;BME280;49289;51.670;5.624;2023-06-04T05:05:23;102281.09;;;19.96;40.57
63194;BME280;49289;51.670;5.624;2023-06-04T05:07:11;102221.02;;;19.60;40.72
63194;BME280;49289;51.670;5.624;2023-06-04T05:08:59;102287.30;;;20.33;40.63
63194;BME280;49289;51.670;5.624;2023-06-04T05:10:46;102287.13;;;20.20;40.65
63194;BME280;49289;51.670;5.624;2023-06-04T05:12:35;102285.17;;;20.15;40.93
63194;BME280;49289;51.670;5.624;2023-06-04T05:14:22;102272.81;;;20.42;40.53
63194;BME280;49289;51.670;5.624;2023-06-04T05:16:09;102285.05;;;20.06;40.78
63194;BME280;49289;51.670;5.624;2023-06-04T05:17:56;102286.55;;;20.13;40.80
63194;BME280;49289;51.670;5.624;2023-06-04T05:19:43;102286.33;;;20.27;40.83
63194;BME280;49289;51.670;5.624;2023-06-04T05:21:30;102289.60;;;19.81;40.94
63194;BME280;49289;51.670;5.624;2023-06-04T05:23:17;102287.26;;;19.92;41.31
63194;BME280;49289;51.670;5.624;2023-06-04T05:25:04;102261.39;;;19.87;41.17
63194;BME280;49289;51.670;5.624;2023-06-04T05:26:51;102266.73;;;19.76;41.26
63194;BME280;49289;51.670;5.624;2023-06-04T05:28:38;102287.39;;;19.94;41.61
63194;BME280;49289;51.670;5.624;2023-06-04T05:30:26;102276.93;;;20.39;41.15
63194;BME280;49289;51.670;5.624;2023-06-04T05:32:13;102264.83;;;20.50;40.73
63194;BME280;49289;51.670;5.624;2023-06-04T05:34:00;102288.50;;;20.71;40.91
63194;BME280;49289;51.670;5.624;2023-06-04T05:35:47;102286.80;;;20.33;40.79
63194;BME280;49289;51.670;5.624;2023-06-04T05:37:34;102286.63;;;20.09;41.08
63194;BME280;49289;51.670;5.624;2023-06-04T05:39:21;102289.64;;;20.21;41.18
63194;BME280;49289;51.670;5.624;2023-06-04T05:41:08;102288.97;;;20.37;40.91
63194;BME280;49289;51.670;5.624;2023-06-04T05:42:55;102291.44;;;20.28;40.90
63194;BME280;49289;51.670;5.624;2023-06-04T05:44:43;102295.50;;;20.57;40.37
63194;BME280;49289;51.670;5.624;2023-06-04T05:46:30;102293.55;;;20.52;40.25
63194;BME280;49289;51.670;5.624;2023-06-04T05:48:18;102283.94;;;20.80;40.34
63194;BME280;49289;51.670;5.624;2023-06-04T05:50:07;102293.03;;;21.09;39.64
63194;BME280;49289;51.670;5.624;2023-06-04T05:51:54;102287.98;;;20.57;39.95
63194;BME280;49289;51.670;5.624;2023-06-04T05:53:42;102294.14;;;20.70;40.20
63194;BME280;49289;51.670;5.624;2023-06-04T05:55:31;102291.94;;;20.76;39.96
63194;BME280;49289;51.670;5.624;2023-06-04T05:57:19;102295.80;;;21.00;39.85
63194;BME280;49289;51.670;5.624;2023-06-04T05:59:07;102292.77;;;20.86;40.09
63194;BME280;49289;51.670;5.624;2023-06-04T06:00:55;102293.78;;;21.28;39.61
63194;BME280;49289;51.670;5.624;2023-06-04T06:02:43;102288.70;;;21.10;39.48
63194;BME280;49289;51.670;5.624;2023-06-04T06:04:31;102296.54;;;20.99;39.51
63194;BME280;49289;51.670;5.624;2023-06-04T06:06:19;102294.54;;;20.87;39.45
63194;BME280;49289;51.670;5.624;2023-06-04T06:08:07;102297.41;;;20.60;40.11
63194;BME280;49289;51.670;5.624;2023-06-04T06:09:55;102296.88;;;21.48;39.31
63194;BME280;49289;51.670;5.624;2023-06-04T06:11:43;102297.17;;;21.55;39.11
63194;BME280;49289;51.670;5.624;2023-06-04T06:13:31;102300.11;;;21.91;39.13
63194;BME280;49289;51.670;5.624;2023-06-04T06:15:19;102293.45;;;22.14;38.56
63194;BME280;49289;51.670;5.624;2023-06-04T06:17:07;102295.97;;;21.15;39.11
63194;BME280;49289;51.670;5.624;2023-06-04T06:18:56;102298.68;;;21.82;38.64
63194;BME280;49289;51.670;5.624;2023-06-04T06:20:44;102280.44;;;21.81;38.11
63194;BME280;49289;51.670;5.624;2023-06-04T06:22:32;102300.86;;;21.90;37.91
63194;BME280;49289;51.670;5.624;2023-06-04T06:24:20;102309.52;;;22.24;38.04
63194;BME280;49289;51.670;5.624;2023-06-04T06:26:08;102301.27;;;21.67;37.81
63194;BME280;49289;51.670;5.624;2023-06-04T06:27:55;102286.27;;;21.93;38.13
63194;BME280;49289;51.670;5.624;2023-06-04T06:29:44;102310.29;;;22.42;37.87
63194;BME280;49289;51.670;5.624;2023-06-04T06:31:31;102307.64;;;22.27;37.78
63194;BME280;49289;51.670;5.624;2023-06-04T06:33:19;102307.73;;;22.38;37.26
63194;BME280;49289;51.670;5.624;2023-06-04T06:35:08;102303.20;;;22.32;37.05
63194;BME280;49289;51.670;5.624;2023-06-04T06:36:56;102310.24;;;22.19;37.30
63194;BME280;49289;51.670;5.624;2023-06-04T06:38:44;102308.33;;;22.20;37.23
63194;BME280;49289;51.670;5.624;2023-06-04T06:40:32;102308.26;;;22.43;37.21
63194;BME280;49289;51.670;5.624;2023-06-04T06:42:20;102309.83;;;22.39;37.17
63194;BME280;49289;51.670;5.624;2023-06-04T06:44:08;102287.15;;;22.84;36.59
63194;BME280;49289;51.670;5.624;2023-06-04T06:45:56;102288.30;;;22.89;36.60
63194;BME280;49289;51.670;5.624;2023-06-04T06:47:43;102285.05;;;23.16;36.15
63194;BME280;49289;51.670;5.624;2023-06-04T06:49:30;102304.70;;;23.14;36.49
63194;BME280;49289;51.670;5.624;2023-06-04T06:51:17;102303.79;;;23.26;35.90
63194;BME280;49289;51.670;5.624;2023-06-04T06:53:04;102287.06;;;23.29;35.91
63194;BME280;49289;51.670;5.624;2023-06-04T06:54:51;102302.53;;;23.56;35.15
63194;BME280;49289;51.670;5.624;2023-06-04T06:56:39;102307.73;;;23.76;35.43
63194;BME280;49289;51.670;5.624;2023-06-04T06:58:27;102308.72;;;23.74;35.53
63194;BME280;49289;51.670;5.624;2023-06-04T07:00:16;102313.59;;;23.46;34.94
63194;BME280;49289;51.670;5.624;2023-06-04T07:02:03;102313.73;;;23.81;35.03
63194;BME280;49289;51.670;5.624;2023-06-04T07:03:50;102313.51;;;23.60;34.94
63194;BME280;49289;51.670;5.624;2023-06-04T07:05:37;102318.06;;;23.83;34.40
63194;BME280;49289;51.670;5.624;2023-06-04T07:07:24;102298.76;;;23.14;34.54
63194;BME280;49289;51.670;5.624;2023-06-04T07:09:11;102298.64;;;23.81;34.36
63194;BME280;49289;51.670;5.624;2023-06-04T07:10:58;102322.45;;;23.25;34.50
63194;BME280;49289;51.670;5.624;2023-06-04T07:12:45;102324.59;;;23.17;34.58
63194;BME280;49289;51.670;5.624;2023-06-04T07:14:32;102322.45;;;23.21;34.33
63194;BME280;49289;51.670;5.624;2023-06-04T07:16:19;102322.05;;;23.73;33.98
63194;BME280;49289;51.670;5.624;2023-06-04T07:18:06;102303.91;;;23.70;33.66
63194;BME280;49289;51.670;5.624;2023-06-04T07:19:54;102320.66;;;23.29;34.24
63194;BME280;49289;51.670;5.624;2023-06-04T07:21:42;102324.44;;;23.84;34.11
63194;BME280;49289;51.670;5.624;2023-06-04T07:23:30;102325.95;;;23.31;34.01
63194;BME280;49289;51.670;5.624;2023-06-04T07:25:19;102325.36;;;23.77;33.78
63194;BME280;49289;51.670;5.624;2023-06-04T07:27:09;102307.39;;;23.41;33.97
63194;BME280;49289;51.670;5.624;2023-06-04T07:28:53;102302.10;;;23.20;34.19
63194;BME280;49289;51.670;5.624;2023-06-04T07:30:40;102301.91;;;23.39;33.78
63194;BME280;49289;51.670;5.624;2023-06-04T07:32:27;102322.20;;;24.03;33.00
63194;BME280;49289;51.670;5.624;2023-06-04T07:34:14;102301.62;;;24.02;32.47
63194;BME280;49289;51.670;5.624;2023-06-04T07:36:01;102296.77;;;24.47;32.32
63194;BME280;49289;51.670;5.624;2023-06-04T07:37:48;102322.53;;;24.38;32.30
63194;BME280;49289;51.670;5.624;2023-06-04T07:39:35;102323.66;;;24.89;32.00
63194;BME280;49289;51.670;5.624;2023-06-04T07:41:22;102322.38;;;24.41;32.82
63194;BME280;49289;51.670;5.624;2023-06-04T07:43:09;102320.82;;;24.33;32.52
63194;BME280;49289;51.670;5.624;2023-06-04T07:44:56;102321.50;;;24.82;31.26
63194;BME280;49289;51.670;5.624;2023-06-04T07:46:43;102313.84;;;25.35;31.38
63194;BME280;49289;51.670;5.624;2023-06-04T07:48:31;102320.12;;;25.52;30.67
63194;BME280;49289;51.670;5.624;2023-06-04T07:50:20;102301.73;;;25.56;30.47
63194;BME280;49289;51.670;5.624;2023-06-04T07:52:07;102298.55;;;25.34;31.16
63194;BME280;49289;51.670;5.624;2023-06-04T07:53:54;102324.34;;;25.60;31.08
63194;BME280;49289;51.670;5.624;2023-06-04T07:55:41;102300.97;;;25.12;30.44
63194;BME280;49289;51.670;5.624;2023-06-04T07:57:28;102322.66;;;25.68;30.44
63194;BME280;49289;51.670;5.624;2023-06-04T07:59:15;102322.33;;;25.33;30.77
63194;BME280;49289;51.670;5.624;2023-06-04T08:01:02;102305.72;;;24.66;30.47
63194;BME280;49289;51.670;5.624;2023-06-04T08:02:49;102333.41;;;24.88;30.86
63194;BME280;49289;51.670;5.624;2023-06-04T08:04:36;102328.91;;;24.98;30.63
63194;BME280;49289;51.670;5.624;2023-06-04T08:06:23;102317.85;;;25.26;30.73
63194;BME280;49289;51.670;5.624;2023-06-04T08:08:10;102323.92;;;25.55;30.50
63194;BME280;49289;51.670;5.624;2023-06-04T08:09:57;102300.83;;;25.93;29.86
63194;BME280;49289;51.670;5.624;2023-06-04T08:11:44;102303.88;;;26.20;29.15
63194;BME280;49289;51.670;5.624;2023-06-04T08:13:32;102324.83;;;26.20;29.62
63194;BME280;49289;51.670;5.624;2023-06-04T08:15:20;102299.52;;;26.23;29.06
63194;BME280;49289;51.670;5.624;2023-06-04T08:17:08;102303.97;;;26.11;28.52
63194;BME280;49289;51.670;5.624;2023-06-04T08:18:55;102319.55;;;26.26;28.67
63194;BME280;49289;51.670;5.624;2023-06-04T08:20:42;102320.91;;;26.53;28.68
63194;BME280;49289;51.670;5.624;2023-06-04T08:22:30;102322.20;;;26.91;28.39
63194;BME280;49289;51.670;5.624;2023-06-04T08:24:18;102316.50;;;27.17;28.11
63194;BME280;49289;51.670;5.624;2023-06-04T08:26:06;102317.97;;;27.31;28.49
63194;BME280;49289;51.670;5.624;2023-06-04T08:27:55;102317.70;;;27.33;28.73
63194;BME280;49289;51.670;5.624;2023-06-04T08:29:43;102317.56;;;27.22;26.65
63194;BME280;49289;51.670;5.624;2023-06-04T08:31:31;102329.27;;;26.93;28.09
63194;BME280;49289;51.670;5.624;2023-06-04T08:33:19;102322.80;;;27.20;28.13
63194;BME280;49289;51.670;5.624;2023-06-04T08:35:06;102305.81;;;27.13;26.87
63194;BME280;49289;51.670;5.624;2023-06-04T08:36:54;102325.13;;;27.33;25.72
63194;BME280;49289;51.670;5.624;2023-06-04T08:38:42;102322.23;;;27.38;25.72
63194;BME280;49289;51.670;5.624;2023-06-04T08:40:30;102326.24;;;27.43;25.78
63194;BME280;49289;51.670;5.624;2023-06-04T08:42:22;102323.74;;;27.18;26.29
63194;BME280;49289;51.670;5.624;2023-06-04T08:44:06;102304.28;;;27.35;26.40
63194;BME280;49289;51.670;5.624;2023-06-04T08:45:53;102326.84;;;27.21;25.96
63194;BME280;49289;51.670;5.624;2023-06-04T08:47:40;102326.41;;;27.31;25.41
63194;BME280;49289;51.670;5.624;2023-06-04T08:49:27;102326.50;;;27.42;25.92
63194;BME280;49289;51.670;5.624;2023-06-04T08:51:14;102306.70;;;27.45;26.31
63194;BME280;49289;51.670;5.624;2023-06-04T08:53:02;102325.92;;;28.16;24.67
63194;BME280;49289;51.670;5.624;2023-06-04T08:54:49;102310.25;;;28.36;24.66
63194;BME280;49289;51.670;5.624;2023-06-04T08:56:36;102289.48;;;27.67;23.95
63194;BME280;49289;51.670;5.624;2023-06-04T08:58:23;102332.58;;;28.17;23.14
63194;BME280;49289;51.670;5.624;2023-06-04T09:00:11;102330.41;;;28.31;22.14
63194;BME280;49289;51.670;5.624;2023-06-04T09:01:58;102332.56;;;28.43;23.55
63194;BME280;49289;51.670;5.624;2023-06-04T09:03:46;102330.71;;;28.60;24.10
63194;BME280;49289;51.670;5.624;2023-06-04T09:05:34;102329.91;;;28.39;23.29
63194;BME280;49289;51.670;5.624;2023-06-04T09:07:22;102334.52;;;28.60;24.09
63194;BME280;49289;51.670;5.624;2023-06-04T09:09:11;102334.69;;;28.44;24.86
63194;BME280;49289;51.670;5.624;2023-06-04T09:10:59;102330.52;;;28.22;24.89
63194;BME280;49289;51.670;5.624;2023-06-04T09:12:48;102318.88;;;28.42;24.71
63194;BME280;49289;51.670;5.624;2023-06-04T09:14:36;102332.47;;;28.27;22.32
63194;BME280;49289;51.670;5.624;2023-06-04T09:16:24;102313.61;;;28.30;22.88
63194;BME280;49289;51.670;5.624;2023-06-04T09:18:12;102329.92;;;28.86;22.56
63194;BME280;49289;51.670;5.624;2023-06-04T09:19:59;102312.66;;;28.40;22.26
63194;BME280;49289;51.670;5.624;2023-06-04T09:21:58;102309.15;;;27.44;22.62
63194;BME280;49289;51.670;5.624;2023-06-04T09:23:49;102331.28;;;28.21;21.69
63194;BME280;49289;51.670;5.624;2023-06-04T09:25:36;102333.52;;;28.88;21.42